Portada
METAR-TAF:

METAR-TAF

Aeroports :

Phnom Penh, Cambodja

latitud: 11-33N, longitud: 104-51E, altitud: 10 m

Observació

L'informe es va fer fa 19 minuts, a les 21:30 UTC
Vent 6 kt del Sud/Sud-Est
Temperatura 26°C
Humitat 84%
Pressió 1011 hPa
Visibilitat 10 km o més
Núvols disperses a una alçada de 1700 ft
Núvols disperses a una alçada de 4000 ft

METAR: VDPP 012130Z 16006KT 9999 SCT017 SCT040 26/23 Q1011

Hora: 04:49 (21:49 UTC)

Pronòstic

L'informe es va fer fa 4 hores i 49 minuts, a les 17:00 UTC
Pronòstic vàlid del 01 a les 18 UTC al 02 a les 12 UTC
Vent 8 kt del Sud
Visibilitat 10 km o més
Núvols disperses a una alçada de 1700 ft
Núvols disperses a una alçada de 4000 ft
Temporalment
l' 02 a les 08 UTC al 02 a les 12 UTC
Núvols disperses a una alçada de 1500 ft
Escasses núvols a una alçada de 1700 ft, Cumulonimbus.
Núvols disperses a una alçada de 4000 ft

TAF: VDPP 011700Z 0118/0212 19008KT 9999 SCT017 SCT040 TEMPO 0208/0212 SCT015 FEW017CB SCT040

Observacions i pronòstics meteorològics de més de 4000 aeroports (METAR i TAF).

Les estacions disponibles són els punts grocs i vermells al mapa.

Posi el ratolí al punt desitjat per veure el nom de l'estació.

Feu clic per veure les observacions i els pronòstics meteorològics.

Per canviar el mapa: feu clic els botons verds amb una creu de color negre per apropar; al botó verd amb un guió per allunyar la imatge; o en les fletxes verdes per a mapes adjacents.


METAR-TAF: